sensor_id;sensor_type;location;lat;lon;timestamp;temperature;humidity
480;DHT22;226;48.606;9.096;2023-07-24T00:01:42;18.80;57.50
480;DHT22;226;48.606;9.096;2023-07-24T00:04:12;18.80;57.90
480;DHT22;226;48.606;9.096;2023-07-24T00:06:40;18.70;57.70
480;DHT22;226;48.606;9.096;2023-07-24T00:09:08;18.80;57.10
480;DHT22;226;48.606;9.096;2023-07-24T00:11:36;18.70;56.60
480;DHT22;226;48.606;9.096;2023-07-24T00:14:04;19.00;57.70
480;DHT22;226;48.606;9.096;2023-07-24T00:16:32;18.70;57.30
480;DHT22;226;48.606;9.096;2023-07-24T00:19:00;18.90;56.40
480;DHT22;226;48.606;9.096;2023-07-24T00:24:05;18.90;52.10
480;DHT22;226;48.606;9.096;2023-07-24T00:26:33;18.90;52.20
480;DHT22;226;48.606;9.096;2023-07-24T00:29:01;18.90;52.50
480;DHT22;226;48.606;9.096;2023-07-24T00:31:29;18.90;52.10
480;DHT22;226;48.606;9.096;2023-07-24T00:33:58;18.70;52.50
480;DHT22;226;48.606;9.096;2023-07-24T00:36:27;19.00;53.50
480;DHT22;226;48.606;9.096;2023-07-24T00:38:55;18.90;52.50
480;DHT22;226;48.606;9.096;2023-07-24T00:41:25;18.90;52.70
480;DHT22;226;48.606;9.096;2023-07-24T00:43:53;19.00;54.00
480;DHT22;226;48.606;9.096;2023-07-24T00:46:21;19.10;53.20
480;DHT22;226;48.606;9.096;2023-07-24T00:48:50;18.90;53.30
480;DHT22;226;48.606;9.096;2023-07-24T00:51:18;18.80;52.80
480;DHT22;226;48.606;9.096;2023-07-24T00:53:46;19.00;53.70
480;DHT22;226;48.606;9.096;2023-07-24T00:58:45;18.30;52.90
480;DHT22;226;48.606;9.096;2023-07-24T01:03:42;18.10;48.80
480;DHT22;226;48.606;9.096;2023-07-24T01:06:11;18.80;54.30
480;DHT22;226;48.606;9.096;2023-07-24T01:08:39;18.80;54.70
480;DHT22;226;48.606;9.096;2023-07-24T01:11:12;18.80;54.40
480;DHT22;226;48.606;9.096;2023-07-24T01:13:50;18.80;54.80
480;DHT22;226;48.606;9.096;2023-07-24T01:16:21;18.80;55.30
480;DHT22;226;48.606;9.096;2023-07-24T01:18:51;18.60;56.50
480;DHT22;226;48.606;9.096;2023-07-24T01:21:32;18.50;56.70
480;DHT22;226;48.606;9.096;2023-07-24T01:24:09;18.30;56.70
480;DHT22;226;48.606;9.096;2023-07-24T01:26:44;18.30;57.00
480;DHT22;226;48.606;9.096;2023-07-24T01:29:12;18.20;57.40
480;DHT22;226;48.606;9.096;2023-07-24T01:31:40;18.20;58.20
480;DHT22;226;48.606;9.096;2023-07-24T01:34:08;17.90;58.60
480;DHT22;226;48.606;9.096;2023-07-24T01:36:37;17.70;60.00
480;DHT22;226;48.606;9.096;2023-07-24T01:39:05;17.90;60.70
480;DHT22;226;48.606;9.096;2023-07-24T01:41:33;17.90;60.00
480;DHT22;226;48.606;9.096;2023-07-24T01:44:03;17.90;60.40
480;DHT22;226;48.606;9.096;2023-07-24T01:46:32;17.90;60.60
480;DHT22;226;48.606;9.096;2023-07-24T01:49:01;17.70;62.20
480;DHT22;226;48.606;9.096;2023-07-24T01:51:29;17.50;61.80
480;DHT22;226;48.606;9.096;2023-07-24T01:53:57;17.40;61.70
480;DHT22;226;48.606;9.096;2023-07-24T01:56:25;17.70;62.30
480;DHT22;226;48.606;9.096;2023-07-24T01:58:54;17.50;61.90
480;DHT22;226;48.606;9.096;2023-07-24T02:01:23;17.80;62.70
480;DHT22;226;48.606;9.096;2023-07-24T02:03:51;17.80;61.70
480;DHT22;226;48.606;9.096;2023-07-24T02:06:19;17.70;62.20
480;DHT22;226;48.606;9.096;2023-07-24T02:08:47;17.50;61.10
480;DHT22;226;48.606;9.096;2023-07-24T02:13:46;17.70;58.30
480;DHT22;226;48.606;9.096;2023-07-24T02:16:14;17.90;61.90
480;DHT22;226;48.606;9.096;2023-07-24T02:18:44;17.80;62.60
480;DHT22;226;48.606;9.096;2023-07-24T02:23:41;17.40;60.50
480;DHT22;226;48.606;9.096;2023-07-24T02:26:09;17.60;66.40
480;DHT22;226;48.606;9.096;2023-07-24T02:28:37;17.30;66.20
480;DHT22;226;48.606;9.096;2023-07-24T02:33:34;17.40;66.30
480;DHT22;226;48.606;9.096;2023-07-24T02:36:03;17.40;65.50
480;DHT22;226;48.606;9.096;2023-07-24T02:38:32;17.50;66.70
480;DHT22;226;48.606;9.096;2023-07-24T02:41:00;17.60;67.50
480;DHT22;226;48.606;9.096;2023-07-24T02:43:28;17.40;66.40
480;DHT22;226;48.606;9.096;2023-07-24T02:46:00;17.30;67.10
480;DHT22;226;48.606;9.096;2023-07-24T02:48:29;17.10;71.40
480;DHT22;226;48.606;9.096;2023-07-24T16:42:24;28.20;35.50
480;DHT22;226;48.606;9.096;2023-07-24T16:44:52;28.50;35.50
480;DHT22;226;48.606;9.096;2023-07-24T16:47:23;28.70;35.60
480;DHT22;226;48.606;9.096;2023-07-24T16:49:51;28.20;37.00
480;DHT22;226;48.606;9.096;2023-07-24T16:52:19;27.30;38.80
480;DHT22;226;48.606;9.096;2023-07-24T16:54:49;26.60;38.60
480;DHT22;226;48.606;9.096;2023-07-24T16:57:17;26.40;41.40
480;DHT22;226;48.606;9.096;2023-07-24T16:59:45;25.80;41.50
480;DHT22;226;48.606;9.096;2023-07-24T17:04:42;25.10;40.30
480;DHT22;226;48.606;9.096;2023-07-24T17:07:10;25.10;45.80
480;DHT22;226;48.606;9.096;2023-07-24T17:09:38;24.80;45.90
480;DHT22;226;48.606;9.096;2023-07-24T17:12:08;24.80;47.90
480;DHT22;226;48.606;9.096;2023-07-24T17:14:36;24.40;48.20
480;DHT22;226;48.606;9.096;2023-07-24T17:17:05;24.30;47.70
480;DHT22;226;48.606;9.096;2023-07-24T17:19:33;24.10;49.30
480;DHT22;226;48.606;9.096;2023-07-24T17:22:01;23.90;49.80
480;DHT22;226;48.606;9.096;2023-07-24T17:24:29;23.70;50.50
480;DHT22;226;48.606;9.096;2023-07-24T17:26:58;23.70;52.40
480;DHT22;226;48.606;9.096;2023-07-24T17:29:27;23.30;54.90
480;DHT22;226;48.606;9.096;2023-07-24T19:33:55;20.30;56.60
480;DHT22;226;48.606;9.096;2023-07-24T19:36:23;20.40;63.60
480;DHT22;226;48.606;9.096;2023-07-24T19:38:51;20.20;64.70
480;DHT22;226;48.606;9.096;2023-07-24T19:43:49;19.90;59.50
480;DHT22;226;48.606;9.096;2023-07-24T19:48:46;19.70;69.50
480;DHT22;226;48.606;9.096;2023-07-24T19:51:16;19.50;72.20
480;DHT22;226;48.606;9.096;2023-07-24T19:53:44;19.40;74.50
480;DHT22;226;48.606;9.096;2023-07-24T19:56:12;19.30;76.20
480;DHT22;226;48.606;9.096;2023-07-24T19:58:40;19.20;78.80
480;DHT22;226;48.606;9.096;2023-07-24T20:01:09;19.30;80.50
480;DHT22;226;48.606;9.096;2023-07-24T20:03:38;18.80;80.00
480;DHT22;226;48.606;9.096;2023-07-24T20:06:06;18.70;82.70
480;DHT22;226;48.606;9.096;2023-07-24T20:11:06;18.40;86.50
